Aktualne dane pomiarowe

Uwaga, wersja testowa! Automatyczne pobieranie danych za pomocą narzędzi lub skryptów to umożliwiających jest zabronione.

Dane meteo z obszaru Polski uzyskane na podstawie depesz SYNOP pobieranych co godzinę z NWS. Najedź myszką na symbol przedstawiony w tabeli, aby uzyskać informacje co do jego znaczenia. Prosimy pamiętać, że to testowa wersja strony, która jeszcze nie jest ukończona. Stworzono również jest krótki FAQ dotyczący korzystania z tej podstrony Anomalie temperatury w chwili obecnej odniesione są do okresu referencyjnego 1951-2016. Okres ten będzie później zmieniony na 1981-2010. Kliknij ikonę aby pobrać plik CSV. Kliknij ikonę aby wygenerować mapę synoptyczną dla danego terminu.

Wybierz Datę:    

        

Łęczyca (12452)

Dane terminowe dla wybranej stacji. Kliknij datę, aby otrzymać dane z tego terminu dla wszystkich stacji.

TemperaturaZachmurzenieWiatrCiśnienieOpadyPogoda
 Data t td wb tx tn tg rh  Nt Nl Cl Cm Ch ws wd g1 g2 wx mslp ppp ch 24h 12h t ww ww w1 w2  
2019-07-12 23:00:00 16.3 13.0 14.1--- 8110.0wxwxwxwx2wx---1010.6 995.3 -0.2---wx-w1w2--
2019-07-12 22:00:00 17.1 12.4 14.0--- 7410.0wxwxwxwx2wx---1010.6 995.4 0.6---wx---
2019-07-12 21:00:00 18.0 12.0 14.2--- 6810.0wx-wx2wx---1010.7 995.5 1.3---------
2019-07-12 20:00:00 18.7 12.2 14.6--- 6610.0wx-wx3wx---1010.6 995.5 1.5---------
2019-07-12 19:00:00 19.8 11.1 14.5--- 5710.0wx-wx4wx---1009.9 994.8 1.1---wx-w1w2--
2019-07-12 18:00:00 20.8 9.7 14.3--- 4910.0wxwxwxwx1----1009.1 994.1 0.3---wx---
2019-07-12 17:00:00 22.1 9.3 14.6--- 4410.0wxwxwxwx4wx---1008.9 994.0 -0.1---------
2019-07-12 16:00:00 24.3 8.7 15.3--- 3710.0wxwxwxwxwx1----1008.5 993.7 -0.7---------
2019-07-12 15:00:00 25.3 6.0 14.6--- 2910.0wxwxwxwx1----1008.7 993.9 -0.9---------
2019-07-12 14:00:00 25.9 5.0 14.5--- 2610.0wxwxwxwx2wx---1008.9 994.1 -0.9---------
2019-07-12 13:00:00 25.9 5.6 14.7--- 2710.0wxwxwxwx1----1009.2 994.4 -0.9---------
2019-07-12 12:00:00 24.6 6.4 14.5--- 3110.0wxwxwxwx2wx---1009.5 994.7 -1.0---------
2019-07-12 11:00:00 26.0 5.6 14.8--- 2710.0wxwxwxwx2wx---1009.9 995.1 -0.7---------
2019-07-12 10:00:00 24.8 5.0 14.0--- 2810.0wxwxwxwx3wx---1010.1 995.3 -0.8---------
2019-07-12 09:00:00 23.8 6.6 14.2--- 3310.0wxwxwxwx2wx---1010.6 995.7 -0.4---------
2019-07-12 08:00:00 23.2 6.9 14.1--- 3510.0wxwxwxwx3wx---1010.6 995.7 -0.4---------
2019-07-12 07:00:00 21.1 9.7 14.4--- 4810.0wx-wx2wx---1011.0 996.0 -0.2---------
2019-07-12 06:00:00 18.5 9.3 13.0--- 5510.0wx-wx2wx---1009.9 996.1 -0.3---------
2019-07-12 05:00:00 15.1 9.9 11.8--- 7110.0wx-wx1----1011.1 996.2 -0.3---------
2019-07-12 04:00:00 12.6 9.1 10.3--- 7910.0wx-wxwx1----1011.1 996.7 -0.7---------
2019-07-12 03:00:00 11.1 8.0 9.1--- 8110.0wx-wx1----1011.1 996.4 -0.7---------
2019-07-12 02:00:00 11.4 8.6 9.6--- 8310.0wx-wx1----1011.2 996.5 -0.7---------
2019-07-12 01:00:00 11.7 8.6 9.7--- 8110.0wx-wx1----1011.5 996.7 -0.6---------
2019-07-12 00:00:00 13.8 8.3 10.4--- 6910.0wx-wx1----1011.6 996.9 -0.2---------
2019-07-11 23:00:00 14.3 8.7 10.9--- 6910.0wx-wx1----1011.9 997.2 0.2---------
2019-07-11 22:00:00 14.1 8.7 10.8--- 7010.0wx-wx1----1011.9 997.2 0.3---------
2019-07-11 21:00:00 14.7 8.4 10.9--- 6610.0wx-wx1----1011.8 997.1 0.5---------
2019-07-11 20:00:00 15.5 9.0 11.6--- 6510.0wx-wx1----1011.7 997.0 0.1---------
2019-07-11 19:00:00 17.6 8.4 12.2--- 5510.0wx-wx1----1011.5 996.8 -0.5---------
2019-07-11 18:00:00 20.8 7.5 13.3--- 4210.0wxwxwxwx2----1011.3 996.6 -0.6---------
2019-07-11 16:00:00 21.5 5.8 12.9--- 3610.0wxwxwxwx3wx---1011.7 996.9 -0.9---------
2019-07-11 15:00:00 21.0 7.3 13.3--- 4110.0wxwxwxwx4wx---1011.9 997.2 -0.7---------
2019-07-11 14:00:00 20.8 6.7 13.0--- 4010.0wxwxwxwx4wx---1012.3 997.5 -0.5---------
2019-07-11 13:00:00 19.7 8.0 13.0--- 4710.0wxwxwx3wx---1012.4 997.7 -0.4---------
2019-07-11 12:00:00 19.2 7.4 12.5--- 4610.0wxwxwx4wx---1012.6 997.9 -0.6---------
2019-07-11 11:00:00 19.1 6.7 12.2--- 4410.0wxwxwx3wx---1012.9 998.0 -0.3---------
2019-07-11 10:00:00 19.1 6.4 12.1--- 4410.0wxwxwx2wx---1013.0 998.1 -0.1---------
2019-07-11 09:00:00 17.1 7.4 11.6--- 5310.0wxwxwx3wx---1013.4 998.4 0.4---------
2019-07-11 08:00:00 16.1 8.4 11.5--- 6010.0wxwxwx3wx---1013.2 998.2 0.5---------
2019-07-11 07:00:00 15.1 9.3 11.5--- 6810.0wxwxwx3wx---1013.2 998.2 0.7---------
2019-07-11 06:00:00 14.1 10.5 11.7--- 7910.0wxwxwx2wx---1012.9 998.0 0.7---------
2019-07-11 05:00:00 12.0 11.3 11.5--- 9510.0wxwxwxwx2wx---1012.9 997.8 0.6---------
2019-07-11 04:00:00 12.0 11.1 11.3--- 9410.0wxwxwxwx2wx---1012.6 997.5 0.1---------
2019-07-11 03:00:00 11.8 10.9 11.1--- 9410.0wxwxwx2wx---1012.4 997.3 -0.5---------
1.5 ms

 

Print Friendly, PDF & Email